Time;durP1;ratioP1;P1;durP2;ratioP2;P2;SDS_P1;SDS_P2;PMS_P1;PMS_P2;Temp;Humidity;BMP_temperature;BMP_pressure;BME280_temperature;BME280_humidity;BME280_pressure;Samples;Min_cycle;Max_cycle;Signal;HPM_P1;HPM_P2
2022/11/07 00:00:06;;;;;;;;;;;14.40;64.60;;;;;;5154581;27;19941;-65
2022/11/07 00:02:31;;;;;;;;;;;14.30;64.60;;;;;;5136375;27;19915;-65
2022/11/07 00:04:57;;;;;;;;;;;14.30;64.60;;;;;;5136217;27;19975;-66
2022/11/07 00:07:22;;;;;;;;;;;14.40;64.90;;;;;;5135708;27;20370;-66
2022/11/07 00:09:48;;;;;;;;;;;14.40;64.80;;;;;;5135719;27;19915;-65
2022/11/07 00:12:13;;;;;;;;;;;14.40;64.90;;;;;;5154373;27;19915;-65
2022/11/07 00:14:39;;;;;;;;;;;14.50;65.10;;;;;;5154312;27;19915;-65
2022/11/07 00:17:06;;;;;;;;;;;14.50;65.10;;;;;;5134857;27;20382;-65
2022/11/07 00:19:31;;;;;;;;;;;14.60;65.20;;;;;;5135776;27;19919;-65
2022/11/07 00:21:57;;;;;;;;;;;14.70;65.10;;;;;;5154375;27;20273;-65
2022/11/07 00:24:22;;;;;;;;;;;14.80;65.00;;;;;;5135738;27;19919;-65
2022/11/07 00:26:48;;;;;;;;;;;14.90;65.00;;;;;;5135559;27;19960;-65
2022/11/07 00:29:14;;;;;;;;;;;15.10;64.80;;;;;;5135890;27;19922;-65
2022/11/07 00:31:40;;;;;;;;;;;15.20;64.60;;;;;;5135487;27;19915;-66
2022/11/07 00:34:06;;;;;;;;;;;15.30;64.30;;;;;;5135163;27;20001;-65
2022/11/07 00:36:31;;;;;;;;;;;15.50;64.20;;;;;;5131579;28;20036;-65
2022/11/07 00:38:57;;;;;;;;;;;15.60;63.90;;;;;;5132339;28;19915;-65
2022/11/07 00:41:22;;;;;;;;;;;15.70;63.70;;;;;;5132118;28;20378;-65
2022/11/07 00:43:48;;;;;;;;;;;15.90;63.60;;;;;;5133490;27;20302;-65
2022/11/07 00:46:14;;;;;;;;;;;15.90;63.20;;;;;;5132055;28;20282;-65
2022/11/07 00:48:40;;;;;;;;;;;16.00;63.00;;;;;;5132156;28;19920;-65
2022/11/07 00:51:08;;;;;;;;;;;16.10;62.80;;;;;;5133247;27;19920;-65
2022/11/07 00:53:34;;;;;;;;;;;16.20;62.60;;;;;;5133203;27;19977;-65
2022/11/07 00:56:00;;;;;;;;;;;16.30;62.40;;;;;;5131138;27;20442;-65
2022/11/07 00:58:25;;;;;;;;;;;16.40;62.10;;;;;;5135145;27;19920;-65
2022/11/07 01:00:51;;;;;;;;;;;16.50;62.00;;;;;;5136037;27;20397;-65
2022/11/07 01:06:02;;;;;;;;;;;16.70;61.50;;;;;;5136070;27;20282;-65
2022/11/07 01:08:28;;;;;;;;;;;16.80;61.40;;;;;;5136094;27;20278;-65
2022/11/07 01:10:54;;;;;;;;;;;16.80;61.10;;;;;;5135872;27;19920;-66
2022/11/07 01:13:20;;;;;;;;;;;16.90;61.00;;;;;;5137210;27;19926;-65
2022/11/07 01:15:46;;;;;;;;;;;17.00;60.80;;;;;;5135933;27;19966;-67
2022/11/07 01:18:11;;;;;;;;;;;17.10;60.70;;;;;;5135960;27;20341;-65
2022/11/07 01:20:37;;;;;;;;;;;17.10;60.50;;;;;;5135665;27;20011;-65
2022/11/07 01:23:03;;;;;;;;;;;17.20;60.40;;;;;;5135880;27;19924;-65
2022/11/07 01:25:28;;;;;;;;;;;17.30;60.20;;;;;;5135887;27;20022;-65
2022/11/07 01:27:54;;;;;;;;;;;17.30;60.10;;;;;;5136760;27;20293;-65
2022/11/07 01:30:19;;;;;;;;;;;17.40;60.00;;;;;;5135795;27;19919;-65
2022/11/07 01:32:45;;;;;;;;;;;17.40;59.90;;;;;;5136829;27;20259;-65
2022/11/07 01:35:10;;;;;;;;;;;17.50;59.80;;;;;;5135283;27;19920;-65
2022/11/07 01:37:36;;;;;;;;;;;17.50;59.60;;;;;;5135134;27;20011;-65
2022/11/07 01:40:01;;;;;;;;;;;17.60;59.60;;;;;;5135452;27;20006;-66
2022/11/07 01:42:27;;;;;;;;;;;17.60;59.50;;;;;;5135221;27;20431;-65
2022/11/07 01:44:55;;;;;;;;;;;17.70;59.40;;;;;;5135117;27;19919;-65
2022/11/07 01:47:22;;;;;;;;;;;17.70;59.20;;;;;;5135432;27;19920;-65
2022/11/07 01:49:48;;;;;;;;;;;17.80;59.10;;;;;;5136348;27;19926;-65
2022/11/07 01:52:18;;;;;;;;;;;17.80;59.10;;;;;;5135353;27;19965;-65
2022/11/07 01:57:26;;;;;;;;;;;17.90;58.90;;;;;;5126013;27;1967627;-65
2022/11/07 01:59:53;;;;;;;;;;;17.90;58.80;;;;;;5174662;27;19922;-65
2022/11/07 02:02:18;;;;;;;;;;;18.00;58.80;;;;;;5172518;27;19925;-65
2022/11/07 02:04:44;;;;;;;;;;;18.00;58.70;;;;;;5153325;27;20309;-65
2022/11/07 02:07:13;;;;;;;;;;;18.00;58.40;;;;;;5153784;27;19937;-65
2022/11/07 02:09:40;;;;;;;;;;;18.10;58.50;;;;;;5153502;27;19919;-65
2022/11/07 02:12:05;;;;;;;;;;;18.20;58.40;;;;;;5153420;27;19919;-65
2022/11/07 02:14:31;;;;;;;;;;;18.20;58.40;;;;;;5153284;27;19919;-65
2022/11/07 02:16:57;;;;;;;;;;;18.20;58.30;;;;;;5171987;27;19927;-67
2022/11/07 02:19:29;;;;;;;;;;;18.20;58.20;;;;;;5153339;27;20289;-65
2022/11/07 02:21:58;;;;;;;;;;;18.30;58.20;;;;;;5153174;27;19919;-65
2022/11/07 02:24:27;;;;;;;;;;;18.30;58.00;;;;;;5171799;27;19918;-65
2022/11/07 02:26:53;;;;;;;;;;;18.40;58.00;;;;;;5171841;27;19971;-65
2022/11/07 02:29:20;;;;;;;;;;;18.40;57.90;;;;;;5171661;27;20281;-65
2022/11/07 02:31:45;;;;;;;;;;;18.40;57.80;;;;;;5171646;27;19926;-66
2022/11/07 02:34:11;;;;;;;;;;;18.50;57.80;;;;;;5153307;27;19919;-65
2022/11/07 02:36:36;;;;;;;;;;;18.40;57.70;;;;;;5152849;27;20386;-65
2022/11/07 02:39:02;;;;;;;;;;;18.40;57.60;;;;;;5171504;27;19925;-65
2022/11/07 02:41:31;;;;;;;;;;;18.50;57.70;;;;;;5152781;27;20485;-65
2022/11/07 02:43:59;;;;;;;;;;;18.50;57.60;;;;;;5171532;27;19930;-65
2022/11/07 02:46:25;;;;;;;;;;;18.50;57.60;;;;;;5171450;27;20377;-65
2022/11/07 02:48:54;;;;;;;;;;;18.50;57.50;;;;;;5153032;27;19919;-65
2022/11/07 02:51:19;;;;;;;;;;;18.50;57.50;;;;;;5171148;27;20055;-65
2022/11/07 02:53:45;;;;;;;;;;;18.50;57.40;;;;;;5152854;27;20032;-65
2022/11/07 02:56:11;;;;;;;;;;;18.50;57.40;;;;;;5152184;27;19978;-65
2022/11/07 02:58:36;;;;;;;;;;;18.60;57.40;;;;;;5171326;27;19923;-65
2022/11/07 03:01:05;;;;;;;;;;;18.60;57.40;;;;;;5152750;27;20370;-66
2022/11/07 03:03:32;;;;;;;;;;;18.60;57.40;;;;;;5152661;27;20005;-66
2022/11/07 03:05:58;;;;;;;;;;;18.60;57.30;;;;;;5152368;27;19968;-66
2022/11/07 03:08:23;;;;;;;;;;;18.60;57.30;;;;;;5159246;27;19945;-65
2022/11/07 03:10:49;;;;;;;;;;;18.60;57.30;;;;;;5157008;27;19919;-66
2022/11/07 03:13:14;;;;;;;;;;;18.70;57.30;;;;;;5157092;27;20370;-66
2022/11/07 03:15:40;;;;;;;;;;;18.70;57.30;;;;;;5156861;27;20370;-66
2022/11/07 03:18:05;;;;;;;;;;;18.70;57.20;;;;;;5138268;27;20658;-66
2022/11/07 03:20:31;;;;;;;;;;;18.70;57.20;;;;;;5138531;27;19919;-66
2022/11/07 03:22:56;;;;;;;;;;;18.70;57.20;;;;;;5156689;27;20305;-66
2022/11/07 03:25:22;;;;;;;;;;;18.70;57.10;;;;;;5156788;27;19919;-66
2022/11/07 03:27:48;;;;;;;;;;;18.80;57.20;;;;;;5156138;27;19927;-65
2022/11/07 03:30:14;;;;;;;;;;;18.70;57.10;;;;;;5138077;27;19919;-66
2022/11/07 03:32:39;;;;;;;;;;;18.80;57.10;;;;;;5156597;27;19919;-66
2022/11/07 03:35:05;;;;;;;;;;;18.90;57.20;;;;;;5137968;27;19964;-66
2022/11/07 03:37:31;;;;;;;;;;;18.80;57.10;;;;;;5156373;27;19919;-66
2022/11/07 03:39:56;;;;;;;;;;;18.80;57.10;;;;;;5137869;27;20437;-67
2022/11/07 03:42:22;;;;;;;;;;;18.80;57.00;;;;;;5156229;27;19919;-67
2022/11/07 03:44:47;;;;;;;;;;;18.90;57.00;;;;;;5156545;27;19919;-65
2022/11/07 03:47:13;;;;;;;;;;;18.90;57.00;;;;;;5137368;27;19923;-66
2022/11/07 03:49:38;;;;;;;;;;;18.90;57.00;;;;;;5137828;27;19990;-65
2022/11/07 03:52:04;;;;;;;;;;;18.90;56.90;;;;;;5138025;27;19919;-67
2022/11/07 03:54:29;;;;;;;;;;;18.90;56.90;;;;;;5155996;27;19940;-66
2022/11/07 03:56:55;;;;;;;;;;;19.00;57.00;;;;;;5133703;27;19977;-65
2022/11/07 03:59:21;;;;;;;;;;;18.90;56.90;;;;;;5133948;27;20015;-66
2022/11/07 04:01:46;;;;;;;;;;;19.00;56.90;;;;;;5134067;27;19930;-66
2022/11/07 04:04:12;;;;;;;;;;;19.00;56.90;;;;;;5135153;27;19927;-66
2022/11/07 04:06:37;;;;;;;;;;;19.00;56.80;;;;;;5135224;27;19919;-65
2022/11/07 04:09:03;;;;;;;;;;;19.00;56.80;;;;;;5133774;27;19923;-65
2022/11/07 04:17:31;;;;;;;;;;;19.00;56.70;;;;;;5133420;27;19923;-67
2022/11/07 04:19:47;;;;;;;;;;;19.10;56.70;;;;;;5133724;27;20332;-66
2022/11/07 04:22:12;;;;;;;;;;;19.10;56.70;;;;;;5116866;27;19926;-65
2022/11/07 04:24:38;;;;;;;;;;;19.10;56.70;;;;;;5133536;27;19919;-66
2022/11/07 04:29:49;;;;;;;;;;;19.10;56.70;;;;;;5134497;27;19920;-66
2022/11/07 04:32:15;;;;;;;;;;;19.10;56.70;;;;;;5133383;27;19926;-66
2022/11/07 04:34:40;;;;;;;;;;;19.10;56.70;;;;;;5133329;27;19919;-65
2022/11/07 04:37:06;;;;;;;;;;;19.10;56.70;;;;;;5133308;27;19927;-65
2022/11/07 04:39:31;;;;;;;;;;;19.10;56.70;;;;;;5133602;27;20410;-66
2022/11/07 04:41:57;;;;;;;;;;;19.10;56.60;;;;;;5134484;27;19927;-66
2022/11/07 04:44:22;;;;;;;;;;;19.10;57.30;;;;;;5134456;27;19919;-65
2022/11/07 04:46:48;;;;;;;;;;;19.30;56.70;;;;;;5134399;27;19919;-65
2022/11/07 04:49:14;;;;;;;;;;;19.20;56.60;;;;;;5133133;27;19930;-65
2022/11/07 04:51:40;;;;;;;;;;;19.20;56.60;;;;;;5134319;27;19926;-65
2022/11/07 04:54:08;;;;;;;;;;;19.30;56.60;;;;;;5133025;27;19920;-66
2022/11/07 04:56:34;;;;;;;;;;;19.20;56.50;;;;;;5131962;27;19923;-67
2022/11/07 04:58:59;;;;;;;;;;;19.20;56.50;;;;;;5133213;27;20515;-66
2022/11/07 05:01:25;;;;;;;;;;;19.30;56.50;;;;;;5132789;27;20014;-65
2022/11/07 05:03:50;;;;;;;;;;;19.20;56.40;;;;;;5133005;27;19926;-66
2022/11/07 05:06:16;;;;;;;;;;;19.30;56.50;;;;;;5132050;27;19976;-65
2022/11/07 05:08:41;;;;;;;;;;;19.30;56.40;;;;;;5134041;27;19919;-65
2022/11/07 05:11:07;;;;;;;;;;;19.30;56.40;;;;;;5132596;27;19919;-66
2022/11/07 05:13:32;;;;;;;;;;;19.30;56.40;;;;;;5133020;27;19919;-66
2022/11/07 05:15:58;;;;;;;;;;;19.30;56.40;;;;;;5133794;27;20294;-65
2022/11/07 05:18:23;;;;;;;;;;;19.30;56.40;;;;;;5132891;27;20488;-66
2022/11/07 05:20:49;;;;;;;;;;;19.30;56.30;;;;;;5133739;27;19923;-66
2022/11/07 05:23:16;;;;;;;;;;;19.40;56.40;;;;;;5134007;27;19965;-65
2022/11/07 05:25:43;;;;;;;;;;;19.40;56.30;;;;;;5133752;27;19920;-67
2022/11/07 05:28:09;;;;;;;;;;;19.40;56.40;;;;;;5132722;27;20033;-65
2022/11/07 05:30:37;;;;;;;;;;;19.40;56.40;;;;;;5133448;27;19949;-66
2022/11/07 05:33:02;;;;;;;;;;;19.30;56.30;;;;;;5132279;27;19919;-66
2022/11/07 05:35:28;;;;;;;;;;;19.40;56.30;;;;;;5131584;27;19924;-65
2022/11/07 05:37:53;;;;;;;;;;;19.40;56.40;;;;;;5132126;27;19926;-66
2022/11/07 05:40:19;;;;;;;;;;;19.40;56.20;;;;;;5132283;27;19923;-66
2022/11/07 05:42:44;;;;;;;;;;;19.40;56.20;;;;;;5133415;27;19919;-65
2022/11/07 05:45:10;;;;;;;;;;;19.40;56.30;;;;;;5133536;27;19939;-66
2022/11/07 05:47:35;;;;;;;;;;;19.40;56.30;;;;;;5132467;27;19920;-65
2022/11/07 05:50:01;;;;;;;;;;;19.40;56.30;;;;;;5132412;27;20396;-66
2022/11/07 05:52:26;;;;;;;;;;;19.40;56.20;;;;;;5132350;27;19924;-66
2022/11/07 05:54:52;;;;;;;;;;;19.40;56.20;;;;;;5132403;28;20367;-66
2022/11/07 05:57:17;;;;;;;;;;;19.40;56.10;;;;;;5131681;28;19931;-66
2022/11/07 05:59:43;;;;;;;;;;;19.50;56.20;;;;;;5131984;28;19927;-65
2022/11/07 06:02:08;;;;;;;;;;;19.50;56.20;;;;;;5133234;27;19950;-66
2022/11/07 06:04:34;;;;;;;;;;;19.50;56.20;;;;;;5131869;28;19919;-66
2022/11/07 06:06:59;;;;;;;;;;;19.50;56.20;;;;;;5131185;27;19927;-65
2022/11/07 06:09:24;;;;;;;;;;;19.50;56.20;;;;;;5132197;28;19927;-66
2022/11/07 06:11:50;;;;;;;;;;;19.50;56.20;;;;;;5133346;27;20286;-65
2022/11/07 06:14:15;;;;;;;;;;;19.50;56.20;;;;;;5131922;28;19946;-66
2022/11/07 06:16:41;;;;;;;;;;;19.50;56.20;;;;;;5133128;27;19932;-65
2022/11/07 06:19:06;;;;;;;;;;;19.50;56.10;;;;;;5131792;28;19923;-66
2022/11/07 06:21:33;;;;;;;;;;;19.50;56.20;;;;;;5132103;28;19919;-66
2022/11/07 06:23:59;;;;;;;;;;;19.50;56.10;;;;;;5131751;28;19957;-66
2022/11/07 06:26:25;;;;;;;;;;;19.50;56.10;;;;;;5131855;28;20008;-66
2022/11/07 06:28:51;;;;;;;;;;;19.50;56.10;;;;;;5136155;27;19929;-67
2022/11/07 06:31:16;;;;;;;;;;;19.60;56.20;;;;;;5133509;27;19924;-64
2022/11/07 06:33:42;;;;;;;;;;;19.60;55.70;;;;;;5137005;27;19919;-63
2022/11/07 06:36:08;;;;;;;;;;;19.60;55.60;;;;;;5138418;27;19933;-63
2022/11/07 06:38:34;;;;;;;;;;;19.60;55.60;;;;;;5134879;27;20571;-62
2022/11/07 06:41:15;;;;;;;;;;;19.60;55.60;;;;;;5130094;28;20015;-63
2022/11/07 06:43:41;;;;;;;;;;;19.70;55.40;;;;;;5133100;27;19921;-63
2022/11/07 06:46:09;;;;;;;;;;;19.70;55.40;;;;;;5140814;27;19988;-65
2022/11/07 06:48:35;;;;;;;;;;;19.70;55.20;;;;;;5131759;27;19977;-63
2022/11/07 06:51:01;;;;;;;;;;;19.70;55.30;;;;;;5135747;27;20393;-63
2022/11/07 06:53:27;;;;;;;;;;;19.80;55.20;;;;;;5137659;27;20267;-63
2022/11/07 06:55:53;;;;;;;;;;;19.80;55.00;;;;;;5142872;27;19930;-63
2022/11/07 06:58:19;;;;;;;;;;;19.80;55.10;;;;;;5141454;27;19929;-63
2022/11/07 07:00:45;;;;;;;;;;;19.80;55.10;;;;;;5135798;27;19919;-63
2022/11/07 07:03:10;;;;;;;;;;;19.80;54.90;;;;;;5130946;27;20000;-63
2022/11/07 07:05:36;;;;;;;;;;;19.80;55.10;;;;;;5113799;27;20125;-64
2022/11/07 07:08:03;;;;;;;;;;;20.10;55.10;;;;;;5126868;27;19919;-63
2022/11/07 07:10:28;;;;;;;;;;;19.80;55.00;;;;;;5153919;27;20333;-64
2022/11/07 07:12:55;;;;;;;;;;;19.90;55.00;;;;;;5154820;27;19926;-63
2022/11/07 07:15:21;;;;;;;;;;;19.90;55.00;;;;;;5157681;27;20363;-62
2022/11/07 07:17:47;;;;;;;;;;;19.90;55.00;;;;;;5136968;27;19927;-63
2022/11/07 07:20:12;;;;;;;;;;;20.00;55.20;;;;;;5130744;27;20278;-64
2022/11/07 07:22:38;;;;;;;;;;;20.00;55.20;;;;;;5133810;27;20599;-64
2022/11/07 07:25:03;;;;;;;;;;;20.00;55.10;;;;;;5148259;27;19934;-64
2022/11/07 07:27:29;;;;;;;;;;;20.00;55.00;;;;;;5151930;27;19919;-66
2022/11/07 07:29:54;;;;;;;;;;;20.00;55.00;;;;;;5140049;27;19919;-64
2022/11/07 07:32:20;;;;;;;;;;;20.00;55.20;;;;;;5134169;27;19919;-65
2022/11/07 07:34:45;;;;;;;;;;;20.00;55.30;;;;;;5151823;27;19965;-64
2022/11/07 07:37:11;;;;;;;;;;;20.00;55.40;;;;;;5137920;27;20015;-66
2022/11/07 07:39:36;;;;;;;;;;;20.00;55.60;;;;;;5149864;27;19923;-66
2022/11/07 07:42:02;;;;;;;;;;;20.00;55.60;;;;;;5140614;27;19969;-66
2022/11/07 07:44:28;;;;;;;;;;;20.10;55.80;;;;;;5135174;27;19923;-65
2022/11/07 07:46:53;;;;;;;;;;;20.10;56.30;;;;;;5132016;27;19919;-65
2022/11/07 07:49:19;;;;;;;;;;;20.10;56.00;;;;;;5136654;27;19923;-65
2022/11/07 07:51:44;;;;;;;;;;;20.20;56.10;;;;;;5138013;27;19968;-66
2022/11/07 07:54:10;;;;;;;;;;;20.10;56.00;;;;;;5141994;27;19926;-66
2022/11/07 07:56:36;;;;;;;;;;;20.10;56.00;;;;;;5148475;27;20014;-66
2022/11/07 07:59:02;;;;;;;;;;;20.10;56.10;;;;;;5138984;27;20018;-66
2022/11/07 08:01:27;;;;;;;;;;;20.10;56.20;;;;;;5129966;27;20018;-66
2022/11/07 08:03:53;;;;;;;;;;;20.00;56.20;;;;;;5134904;27;19977;-64
2022/11/07 08:06:18;;;;;;;;;;;20.10;56.20;;;;;;5131839;27;19927;-65
2022/11/07 08:08:44;;;;;;;;;;;20.10;56.40;;;;;;5130143;27;20363;-64
2022/11/07 08:11:09;;;;;;;;;;;20.10;56.20;;;;;;5129260;27;19927;-64
2022/11/07 08:13:35;;;;;;;;;;;20.10;56.40;;;;;;5128481;27;19923;-66
2022/11/07 08:16:01;;;;;;;;;;;20.10;56.60;;;;;;5126339;27;20386;-66
2022/11/07 08:18:27;;;;;;;;;;;20.10;56.70;;;;;;5128245;27;19931;-67
2022/11/07 08:20:53;;;;;;;;;;;20.10;56.90;;;;;;5129762;27;19927;-66
2022/11/07 08:23:19;;;;;;;;;;;20.10;57.10;;;;;;5126435;27;19923;-66
2022/11/07 08:25:53;;;;;;;;;;;20.10;57.20;;;;;;5127884;27;20014;-65
2022/11/07 08:28:22;;;;;;;;;;;20.10;57.30;;;;;;5146713;27;19926;-65
2022/11/07 08:30:56;;;;;;;;;;;20.10;57.40;;;;;;5134505;27;19934;-67
2022/11/07 08:33:21;;;;;;;;;;;20.10;57.40;;;;;;5134019;27;19984;-67
2022/11/07 08:35:47;;;;;;;;;;;20.10;57.30;;;;;;5132680;27;19931;-71
2022/11/07 08:38:12;;;;;;;;;;;20.10;57.10;;;;;;5132677;27;20006;-67
2022/11/07 08:40:38;;;;;;;;;;;20.20;57.20;;;;;;5132757;27;19984;-69
2022/11/07 08:43:03;;;;;;;;;;;20.20;57.00;;;;;;5134018;27;19927;-68
2022/11/07 08:45:29;;;;;;;;;;;20.20;57.20;;;;;;5131040;27;20324;-63
2022/11/07 08:47:55;;;;;;;;;;;20.10;57.00;;;;;;5132557;27;19937;-63
2022/11/07 08:50:20;;;;;;;;;;;20.10;57.20;;;;;;5130828;27;19926;-66
2022/11/07 08:52:46;;;;;;;;;;;20.10;57.40;;;;;;5132412;27;19927;-64
2022/11/07 08:55:11;;;;;;;;;;;20.10;57.10;;;;;;5131923;27;20410;-65
2022/11/07 08:57:37;;;;;;;;;;;20.20;57.40;;;;;;5125322;27;19933;-68
2022/11/07 09:00:03;;;;;;;;;;;20.20;57.00;;;;;;5134035;27;19923;-65
2022/11/07 09:02:29;;;;;;;;;;;20.20;57.00;;;;;;5131505;27;19920;-65
2022/11/07 09:04:54;;;;;;;;;;;20.20;57.40;;;;;;5132704;27;19919;-65
2022/11/07 09:07:20;;;;;;;;;;;20.20;57.30;;;;;;5132217;27;19958;-63
2022/11/07 09:09:45;;;;;;;;;;;20.20;56.50;;;;;;5131005;27;19933;-63
2022/11/07 09:12:11;;;;;;;;;;;20.20;56.60;;;;;;5131274;27;19930;-65
2022/11/07 09:14:36;;;;;;;;;;;20.20;56.80;;;;;;5130149;27;20023;-64
2022/11/07 09:17:02;;;;;;;;;;;20.20;56.90;;;;;;5134905;27;19974;-65
2022/11/07 09:19:28;;;;;;;;;;;20.20;57.00;;;;;;5130937;27;19931;-65
2022/11/07 09:21:55;;;;;;;;;;;20.20;57.10;;;;;;5130878;27;19964;-64
2022/11/07 09:24:20;;;;;;;;;;;20.20;57.20;;;;;;5129168;27;20360;-66
2022/11/07 09:26:46;;;;;;;;;;;19.60;57.00;;;;;;5130734;27;19923;-66
2022/11/07 09:29:12;;;;;;;;;;;20.20;57.30;;;;;;5132352;27;19922;-66
2022/11/07 09:31:37;;;;;;;;;;;20.10;57.40;;;;;;5130672;27;19923;-64
2022/11/07 09:34:03;;;;;;;;;;;20.20;57.70;;;;;;5129856;27;19944;-63
2022/11/07 09:36:28;;;;;;;;;;;20.10;57.80;;;;;;5128215;27;19931;-63
2022/11/07 09:38:55;;;;;;;;;;;20.20;57.90;;;;;;5129440;27;19923;-63
2022/11/07 09:41:41;;;;;;;;;;;20.20;57.90;;;;;;5131076;27;20634;-63
2022/11/07 09:49:37;;;;;;;;;;;20.20;57.70;;;;;;5099112;27;1863072;-62
2022/11/07 09:52:06;;;;;;;;;;;20.20;58.10;;;;;;5112338;27;19962;-63
2022/11/07 09:54:34;;;;;;;;;;;20.20;57.70;;;;;;5120121;27;20610;-63
2022/11/07 09:56:59;;;;;;;;;;;20.20;57.70;;;;;;5121230;27;19962;-63
2022/11/07 09:59:36;;;;;;;;;;;20.20;57.60;;;;;;5116385;27;20006;-62
2022/11/07 10:02:03;;;;;;;;;;;20.20;57.70;;;;;;5120445;27;19924;-62
2022/11/07 10:04:28;;;;;;;;;;;20.20;57.70;;;;;;5108105;27;20388;-62
2022/11/07 10:06:57;;;;;;;;;;;20.20;57.70;;;;;;5122052;27;20416;-62
2022/11/07 10:20:33;;;;;;;;;;;20.10;57.80;;;;;;5081593;27;1885503;-67
2022/11/07 10:25:43;;;;;;;;;;;20.20;58.50;;;;;;5096009;27;1859308;-65
2022/11/07 10:28:12;;;;;;;;;;;20.20;58.60;;;;;;5149402;27;19934;-67
2022/11/07 10:30:37;;;;;;;;;;;20.20;58.90;;;;;;5134091;27;19929;-66
2022/11/07 10:33:12;;;;;;;;;;;20.20;58.90;;;;;;5124812;27;19923;-67
2022/11/07 10:35:41;;;;;;;;;;;20.20;59.10;;;;;;5132841;27;20014;-66
2022/11/07 10:38:16;;;;;;;;;;;20.20;58.90;;;;;;5119559;27;20637;-67
2022/11/07 10:40:42;;;;;;;;;;;20.10;58.90;;;;;;5138342;27;19949;-66
2022/11/07 10:43:13;;;;;;;;;;;20.20;58.90;;;;;;5156375;27;19923;-68
2022/11/07 10:45:39;;;;;;;;;;;20.10;58.90;;;;;;5154298;27;19927;-65
2022/11/07 10:48:04;;;;;;;;;;;20.20;59.10;;;;;;5131710;27;20503;-66
2022/11/07 10:50:30;;;;;;;;;;;20.20;59.10;;;;;;5135198;27;19927;-63
2022/11/07 10:52:59;;;;;;;;;;;20.20;59.50;;;;;;5149448;27;19922;-63
2022/11/07 10:55:25;;;;;;;;;;;20.20;59.40;;;;;;5140934;27;19927;-63
2022/11/07 10:57:52;;;;;;;;;;;20.30;59.50;;;;;;5134411;27;19923;-62
2022/11/07 11:00:27;;;;;;;;;;;20.30;59.70;;;;;;5146413;27;19979;-64
2022/11/07 11:02:54;;;;;;;;;;;20.30;59.70;;;;;;5136195;27;20370;-64
2022/11/07 11:08:18;;;;;;;;;;;20.30;59.60;;;;;;5079604;27;19925;-63
2022/11/07 11:10:44;;;;;;;;;;;20.30;59.60;;;;;;5033964;28;19924;-64
2022/11/07 11:13:29;;;;;;;;;;;20.30;59.70;;;;;;5034192;28;20296;-65
2022/11/07 11:15:57;;;;;;;;;;;20.30;59.80;;;;;;5033416;28;19978;-65
2022/11/07 11:18:23;;;;;;;;;;;20.30;59.80;;;;;;5038320;28;20031;-65
2022/11/07 11:20:55;;;;;;;;;;;20.30;59.90;;;;;;5056659;28;20027;-64
2022/11/07 11:23:22;;;;;;;;;;;20.30;60.00;;;;;;5039786;28;19933;-64
2022/11/07 11:25:48;;;;;;;;;;;20.30;60.10;;;;;;5051957;28;19935;-63
2022/11/07 11:28:25;;;;;;;;;;;20.40;60.10;;;;;;5054282;28;19975;-64
2022/11/07 11:30:57;;;;;;;;;;;20.40;60.00;;;;;;5036143;28;20403;-64
2022/11/07 11:33:25;;;;;;;;;;;20.40;59.90;;;;;;5051866;28;19925;-64
2022/11/07 11:35:54;;;;;;;;;;;20.40;59.70;;;;;;5032265;28;19937;-64
2022/11/07 11:38:22;;;;;;;;;;;20.40;59.70;;;;;;5050539;28;19932;-63
2022/11/07 11:40:51;;;;;;;;;;;20.40;59.50;;;;;;5036260;28;20950;-66
2022/11/07 11:48:40;;;;;;;;;;;20.40;59.60;;;;;;5081405;27;19924;-64
2022/11/07 11:51:09;;;;;;;;;;;20.40;59.70;;;;;;5072699;28;19928;-65
2022/11/07 11:53:34;;;;;;;;;;;20.40;59.80;;;;;;5071530;28;19931;-64
2022/11/07 11:56:12;;;;;;;;;;;20.40;60.00;;;;;;5073075;28;20490;-64
2022/11/07 11:58:58;;;;;;;;;;;20.40;60.10;;;;;;5072179;28;19924;-63
2022/11/07 12:01:43;;;;;;;;;;;20.40;60.30;;;;;;5108142;28;20280;-64
2022/11/07 12:07:13;;;;;;;;;;;20.40;60.00;;;;;;5082094;27;1856770;-64
2022/11/07 12:09:45;;;;;;;;;;;20.40;60.00;;;;;;5122472;27;20751;-65
2022/11/07 12:12:31;;;;;;;;;;;20.90;60.10;;;;;;5121202;27;20345;-66
2022/11/07 12:15:06;;;;;;;;;;;20.40;59.90;;;;;;5132604;27;19931;-67
2022/11/07 12:17:52;;;;;;;;;;;20.40;59.90;;;;;;5116238;27;19922;-65
2022/11/07 12:20:21;;;;;;;;;;;20.50;59.90;;;;;;5112654;27;19927;-65
2022/11/07 12:25:31;;;;;;;;;;;20.50;59.90;;;;;;5102639;27;19928;-66
2022/11/07 12:36:27;;;;;;;;;;;20.50;60.00;;;;;;5080507;27;19924;-65
2022/11/07 12:47:00;;;;;;;;;;;20.50;60.00;;;;;;5053783;28;20456;-65
2022/11/07 12:54:58;;;;;;;;;;;20.50;60.00;;;;;;5086251;27;19925;-66
2022/11/07 12:57:27;;;;;;;;;;;20.50;60.00;;;;;;5083314;28;20627;-66
2022/11/07 12:59:56;;;;;;;;;;;20.50;60.00;;;;;;5070337;28;19924;-65
2022/11/07 13:05:14;;;;;;;;;;;20.50;60.00;;;;;;5104276;27;1869263;-66
2022/11/07 13:07:44;;;;;;;;;;;20.50;60.00;;;;;;5155187;27;19922;-65
2022/11/07 13:10:14;;;;;;;;;;;20.50;60.00;;;;;;5153763;27;19926;-67
2022/11/07 13:12:45;;;;;;;;;;;20.50;60.00;;;;;;5153866;27;19926;-65
2022/11/07 13:15:12;;;;;;;;;;;20.50;60.00;;;;;;5169984;27;19999;-65
2022/11/07 13:17:39;;;;;;;;;;;20.40;60.00;;;;;;5154201;27;19930;-65
2022/11/07 13:20:22;;;;;;;;;;;20.40;60.00;;;;;;5160692;27;19995;-63
2022/11/07 13:22:50;;;;;;;;;;;20.50;60.00;;;;;;5146602;27;19926;-64
2022/11/07 13:33:29;;;;;;;;;;;20.50;60.30;;;;;;5084951;27;1872643;-65
2022/11/07 13:35:56;;;;;;;;;;;20.50;60.50;;;;;;5133775;27;19922;-66
2022/11/07 13:38:23;;;;;;;;;;;20.50;60.60;;;;;;5128823;27;19926;-64
2022/11/07 13:40:57;;;;;;;;;;;20.50;61.00;;;;;;5133448;27;19929;-61
2022/11/07 13:43:43;;;;;;;;;;;20.50;61.10;;;;;;5137805;27;19927;-63
2022/11/07 13:46:18;;;;;;;;;;;20.60;61.40;;;;;;5133464;27;19923;-66
2022/11/07 13:51:30;;;;;;;;;;;20.60;61.40;;;;;;5049187;28;19931;-62
2022/11/07 13:56:40;;;;;;;;;;;20.60;61.30;;;;;;5042815;27;1867443;-62
2022/11/07 13:59:11;;;;;;;;;;;20.60;61.40;;;;;;5084372;28;19928;-62
2022/11/07 14:01:43;;;;;;;;;;;20.60;61.40;;;;;;5108194;28;20333;-62
2022/11/07 14:04:11;;;;;;;;;;;20.20;61.00;;;;;;5092207;28;20035;-62
2022/11/07 14:06:37;;;;;;;;;;;20.60;61.60;;;;;;5094347;28;19977;-63
2022/11/07 14:09:04;;;;;;;;;;;20.60;61.30;;;;;;5095119;28;20003;-63
2022/11/07 14:11:33;;;;;;;;;;;20.60;61.30;;;;;;5092205;28;19963;-63
2022/11/07 14:13:59;;;;;;;;;;;20.60;61.20;;;;;;5094780;28;19973;-63
2022/11/07 14:16:26;;;;;;;;;;;20.60;61.00;;;;;;5108835;28;19924;-62
2022/11/07 14:18:54;;;;;;;;;;;20.60;61.10;;;;;;5085926;28;19920;-63
2022/11/07 14:21:22;;;;;;;;;;;20.60;61.10;;;;;;5110738;28;20387;-63
2022/11/07 14:23:48;;;;;;;;;;;20.60;61.00;;;;;;5088815;28;19919;-63
2022/11/07 14:29:00;;;;;;;;;;;20.60;60.90;;;;;;5083230;28;19912;-63
2022/11/07 14:31:28;;;;;;;;;;;20.60;60.80;;;;;;5079521;28;19927;-63
2022/11/07 14:33:55;;;;;;;;;;;20.60;60.70;;;;;;5088272;28;20343;-63
2022/11/07 14:36:21;;;;;;;;;;;20.60;60.60;;;;;;5063672;28;19955;-64
2022/11/07 14:38:49;;;;;;;;;;;20.70;60.60;;;;;;5071760;28;20432;-63
2022/11/07 14:41:15;;;;;;;;;;;20.70;60.50;;;;;;5071984;28;20559;-62
2022/11/07 14:43:42;;;;;;;;;;;20.70;60.70;;;;;;5064112;28;20484;-62
2022/11/07 14:46:11;;;;;;;;;;;20.70;60.60;;;;;;5067778;28;19920;-63
2022/11/07 14:48:37;;;;;;;;;;;20.70;60.50;;;;;;5064655;28;19921;-62
2022/11/07 14:51:04;;;;;;;;;;;20.70;60.20;;;;;;5069575;28;20029;-65
2022/11/07 14:53:31;;;;;;;;;;;20.80;60.10;;;;;;5073896;28;19932;-64
2022/11/07 14:55:59;;;;;;;;;;;20.80;60.10;;;;;;5066569;28;19928;-67
2022/11/07 14:58:26;;;;;;;;;;;20.80;60.10;;;;;;5072818;28;20273;-64
2022/11/07 15:00:54;;;;;;;;;;;20.70;60.00;;;;;;5082275;28;19925;-65
2022/11/07 15:03:21;;;;;;;;;;;20.80;60.00;;;;;;5082188;28;20586;-65
2022/11/07 15:05:46;;;;;;;;;;;20.70;60.00;;;;;;5083146;28;19968;-65
2022/11/07 15:08:32;;;;;;;;;;;20.80;59.90;;;;;;5083350;28;20378;-63
2022/11/07 15:10:58;;;;;;;;;;;20.70;59.90;;;;;;5082426;28;20364;-63
2022/11/07 15:13:25;;;;;;;;;;;20.80;60.00;;;;;;5080950;28;19931;-63
2022/11/07 15:16:10;;;;;;;;;;;20.80;59.90;;;;;;5082201;28;19932;-63
2022/11/07 15:18:39;;;;;;;;;;;20.80;59.80;;;;;;5082184;28;19920;-62
2022/11/07 15:21:05;;;;;;;;;;;20.80;59.80;;;;;;5084455;28;20414;-63
2022/11/07 15:23:32;;;;;;;;;;;20.70;59.70;;;;;;5081165;28;19932;-63
2022/11/07 15:26:07;;;;;;;;;;;20.80;59.80;;;;;;5083899;28;19920;-62
2022/11/07 15:31:21;;;;;;;;;;;20.70;59.70;;;;;;5104776;27;1859884;-63
2022/11/07 15:33:46;;;;;;;;;;;20.80;59.90;;;;;;5159281;27;19919;-63
2022/11/07 15:36:13;;;;;;;;;;;20.70;59.90;;;;;;5184077;27;20348;-63
2022/11/07 15:38:39;;;;;;;;;;;20.70;59.90;;;;;;5191241;27;20000;-63
2022/11/07 15:41:05;;;;;;;;;;;20.70;59.90;;;;;;5171506;27;20379;-63
2022/11/07 15:43:31;;;;;;;;;;;20.70;59.90;;;;;;5171659;27;19926;-63
2022/11/07 15:45:58;;;;;;;;;;;20.70;59.90;;;;;;5171636;27;19919;-63